Time;durP1;ratioP1;P1;durP2;ratioP2;P2;SDS_P1;SDS_P2;PMS_P1;PMS_P2;Temp;Humidity;BMP_temperature;BMP_pressure;BME280_temperature;BME280_humidity;BME280_pressure;Samples;Min_cycle;Max_cycle;Signal;HPM_P1;HPM_P2
2021/10/17 00:00:32;;;;;;;3.95;2.20;;;11.80;88.10;;;;;;5014183;28;20080;-76
2021/10/17 00:02:59;;;;;;;7.10;2.72;;;11.80;88.10;;;;;;5014653;28;20052;-76
2021/10/17 00:05:28;;;;;;;6.75;2.45;;;11.80;88.00;;;;;;5013385;28;20449;-76
2021/10/17 00:07:54;;;;;;;4.57;2.05;;;11.80;88.00;;;;;;5013295;28;20021;-76
2021/10/17 00:10:24;;;;;;;5.25;2.70;;;11.80;88.00;;;;;;5014947;28;20040;-76
2021/10/17 00:12:52;;;;;;;3.90;2.45;;;11.80;87.90;;;;;;5012606;28;20121;-76
2021/10/17 00:15:19;;;;;;;7.95;2.40;;;11.80;87.90;;;;;;5013162;28;20113;-76
2021/10/17 00:17:46;;;;;;;9.60;2.83;;;11.70;87.90;;;;;;5012258;28;20068;-76
2021/10/17 00:20:14;;;;;;;7.18;2.40;;;11.80;88.00;;;;;;5014635;28;20030;-76
2021/10/17 00:22:40;;;;;;;5.57;2.72;;;11.80;88.00;;;;;;5013720;28;20022;-76
2021/10/17 00:25:06;;;;;;;6.68;2.70;;;11.80;87.90;;;;;;5014273;28;20025;-74
2021/10/17 00:27:32;;;;;;;6.47;2.58;;;11.80;88.00;;;;;;5013358;28;20439;-75
2021/10/17 00:29:58;;;;;;;5.97;2.88;;;11.80;88.10;;;;;;5012850;28;20033;-75
2021/10/17 00:32:24;;;;;;;4.40;2.10;;;11.80;88.10;;;;;;5013826;28;20017;-75
2021/10/17 00:34:49;;;;;;;5.70;2.28;;;11.80;88.10;;;;;;5011911;28;20053;-75
2021/10/17 00:37:17;;;;;;;4.35;2.13;;;11.80;88.10;;;;;;5014050;28;20471;-75
2021/10/17 00:39:43;;;;;;;5.22;2.50;;;11.80;88.00;;;;;;5013413;28;20032;-75
2021/10/17 00:42:08;;;;;;;7.13;2.45;;;11.80;88.00;;;;;;5013981;28;20101;-75
2021/10/17 00:44:38;;;;;;;7.50;2.25;;;11.90;88.10;;;;;;5012098;28;20084;-75
2021/10/17 00:47:04;;;;;;;4.07;1.95;;;11.90;88.10;;;;;;5029175;28;20062;-75
2021/10/17 00:49:30;;;;;;;5.30;2.45;;;11.90;88.00;;;;;;5012394;28;20032;-75
2021/10/17 00:51:56;;;;;;;5.57;2.38;;;11.90;88.10;;;;;;5014213;28;20064;-75
2021/10/17 00:54:22;;;;;;;7.80;2.28;;;11.80;88.00;;;;;;5013747;28;20030;-75
2021/10/17 00:56:48;;;;;;;4.13;2.42;;;11.90;88.10;;;;;;5013085;28;20072;-76
2021/10/17 00:59:15;;;;;;;5.88;2.40;;;11.90;88.10;;;;;;5013879;28;20367;-75
2021/10/17 01:01:41;;;;;;;4.03;2.17;;;11.90;88.20;;;;;;5013045;28;20458;-75
2021/10/17 01:04:07;;;;;;;3.88;2.10;;;11.80;88.10;;;;;;5013578;28;20058;-75
2021/10/17 01:06:33;;;;;;;6.20;2.17;;;11.80;88.10;;;;;;5012837;28;20026;-76
2021/10/17 01:08:59;;;;;;;9.48;2.50;;;11.90;88.20;;;;;;5013509;28;20018;-75
2021/10/17 01:11:47;;;;;;;6.68;2.58;;;11.90;88.20;;;;;;5013237;28;20355;-76
2021/10/17 01:14:17;;;;;;;7.05;2.15;;;11.90;88.30;;;;;;5013276;28;20029;-76
2021/10/17 01:16:43;;;;;;;9.57;3.20;;;11.90;88.40;;;;;;5011394;28;20063;-76
2021/10/17 01:19:09;;;;;;;3.58;2.13;;;11.90;88.40;;;;;;5013270;28;20108;-76
2021/10/17 01:21:37;;;;;;;6.07;2.60;;;11.90;88.50;;;;;;5012584;28;20097;-76
2021/10/17 01:24:03;;;;;;;5.65;2.15;;;11.90;88.60;;;;;;5013155;28;20164;-76
2021/10/17 01:26:29;;;;;;;6.20;2.10;;;11.90;88.50;;;;;;5011485;28;20030;-76
2021/10/17 01:28:54;;;;;;;5.72;2.33;;;11.90;88.50;;;;;;5027041;28;20028;-76
2021/10/17 01:31:20;;;;;;;4.05;2.00;;;11.90;88.60;;;;;;5013081;28;20025;-76
2021/10/17 01:33:46;;;;;;;5.53;2.22;;;11.90;88.60;;;;;;5012154;28;20062;-76
2021/10/17 01:36:12;;;;;;;4.70;2.30;;;11.90;88.60;;;;;;5013201;28;20160;-76
2021/10/17 01:38:37;;;;;;;5.43;2.55;;;11.90;88.60;;;;;;5012342;28;20045;-76
2021/10/17 01:41:03;;;;;;;8.57;2.25;;;11.80;88.60;;;;;;5012919;28;20076;-76
2021/10/17 01:43:28;;;;;;;2.63;1.67;;;11.80;88.70;;;;;;5012586;28;20026;-76
2021/10/17 01:45:57;;;;;;;4.50;2.50;;;11.80;88.80;;;;;;5012290;28;20018;-76
2021/10/17 01:48:23;;;;;;;6.18;2.55;;;11.80;88.80;;;;;;5012799;28;20030;-76
2021/10/17 01:50:48;;;;;;;4.82;2.28;;;11.80;88.80;;;;;;5011897;28;20075;-76
2021/10/17 01:53:14;;;;;;;5.28;1.90;;;11.80;88.80;;;;;;5012557;28;20029;-76
2021/10/17 01:55:40;;;;;;;5.18;2.28;;;11.80;88.90;;;;;;5012052;28;20160;-76
2021/10/17 01:58:05;;;;;;;5.40;2.28;;;11.80;89.00;;;;;;5012353;28;20018;-76
2021/10/17 02:00:31;;;;;;;4.55;2.60;;;11.80;89.20;;;;;;5012834;28;20026;-76
2021/10/17 02:02:56;;;;;;;6.72;2.45;;;11.80;89.30;;;;;;5012055;28;20026;-76
2021/10/17 02:05:22;;;;;;;7.30;2.65;;;11.80;89.40;;;;;;5012250;28;20026;-76
2021/10/17 02:07:48;;;;;;;4.90;1.85;;;11.80;90.00;;;;;;5012015;28;20018;-76
2021/10/17 02:10:13;;;;;;;6.47;2.60;;;11.80;89.30;;;;;;5012522;28;20033;-76
2021/10/17 02:12:39;;;;;;;6.22;2.25;;;11.80;89.30;;;;;;5011839;28;20061;-76
2021/10/17 02:15:05;;;;;;;3.13;2.20;;;11.80;89.40;;;;;;5027977;28;20113;-76
2021/10/17 02:17:32;;;;;;;5.80;1.85;;;11.70;89.50;;;;;;5012525;28;20068;-76
2021/10/17 02:19:59;;;;;;;8.60;2.50;;;11.70;89.50;;;;;;5010553;28;20143;-76
2021/10/17 02:22:24;;;;;;;4.88;2.25;;;11.70;89.50;;;;;;5012311;28;20483;-77
2021/10/17 02:24:50;;;;;;;5.55;2.60;;;11.70;89.60;;;;;;5011476;28;20034;-76
2021/10/17 02:27:16;;;;;;;6.85;2.97;;;11.70;89.70;;;;;;5027353;28;20022;-76
2021/10/17 02:29:42;;;;;;;6.40;2.10;;;11.70;89.70;;;;;;5011347;28;20025;-76
2021/10/17 02:32:07;;;;;;;5.18;2.28;;;11.70;89.80;;;;;;5012216;28;20029;-76
2021/10/17 02:34:33;;;;;;;3.28;2.03;;;11.70;89.80;;;;;;5027302;28;20449;-76
2021/10/17 02:37:00;;;;;;;5.88;2.38;;;11.70;89.80;;;;;;5011598;28;20049;-76
2021/10/17 02:39:25;;;;;;;7.55;2.15;;;11.70;89.80;;;;;;5010915;28;20482;-76
2021/10/17 02:41:51;;;;;;;6.53;2.53;;;11.70;89.90;;;;;;5029524;28;20064;-76
2021/10/17 02:44:17;;;;;;;3.50;2.10;;;11.70;89.90;;;;;;5016197;28;20029;-76
2021/10/17 02:46:43;;;;;;;5.00;2.45;;;11.70;90.00;;;;;;5015286;28;20054;-76
2021/10/17 02:49:09;;;;;;;8.05;1.98;;;11.70;90.00;;;;;;5015811;28;20136;-76
2021/10/17 02:51:34;;;;;;;6.43;2.38;;;11.70;90.00;;;;;;5016072;28;20530;-76
2021/10/17 02:54:00;;;;;;;3.42;2.10;;;11.70;90.00;;;;;;5014988;28;20160;-75
2021/10/17 02:56:26;;;;;;;7.65;2.78;;;11.70;90.00;;;;;;5031273;28;20498;-76
2021/10/17 02:58:52;;;;;;;9.57;2.47;;;11.70;90.10;;;;;;5015272;28;20026;-76
2021/10/17 03:01:17;;;;;;;5.45;2.10;;;11.70;90.10;;;;;;5016313;28;20033;-74
2021/10/17 03:03:43;;;;;;;4.05;2.40;;;11.70;90.20;;;;;;5015187;28;20030;-75
2021/10/17 03:06:09;;;;;;;5.10;2.28;;;11.70;90.20;;;;;;5015861;28;20029;-75
2021/10/17 03:08:35;;;;;;;5.68;2.40;;;11.70;90.20;;;;;;5015869;28;20421;-75
2021/10/17 03:11:01;;;;;;;6.30;2.65;;;11.70;90.20;;;;;;5013979;28;20505;-75
2021/10/17 03:13:26;;;;;;;6.30;2.42;;;11.70;90.20;;;;;;5014233;28;20026;-75
2021/10/17 03:15:52;;;;;;;4.25;1.83;;;11.70;90.20;;;;;;5015008;28;20488;-75
2021/10/17 03:18:18;;;;;;;5.75;2.25;;;11.60;90.20;;;;;;5015602;28;20076;-75
2021/10/17 03:20:43;;;;;;;5.32;2.63;;;11.60;90.20;;;;;;5014848;28;20021;-75
2021/10/17 03:23:09;;;;;;;5.32;2.38;;;11.70;90.30;;;;;;5015398;28;20032;-75
2021/10/17 03:25:34;;;;;;;5.20;2.55;;;11.60;90.20;;;;;;5014021;28;20128;-75
2021/10/17 03:28:00;;;;;;;5.07;2.33;;;11.60;90.20;;;;;;5014488;28;20057;-75
2021/10/17 03:30:26;;;;;;;7.95;2.60;;;11.60;90.20;;;;;;5014195;28;20390;-75
2021/10/17 03:32:51;;;;;;;4.13;2.53;;;11.60;90.30;;;;;;5013023;28;20518;-75
2021/10/17 03:35:17;;;;;;;6.07;2.85;;;11.60;90.30;;;;;;5014130;28;20022;-75
2021/10/17 03:37:43;;;;;;;10.13;3.03;;;11.60;90.60;;;;;;5013443;28;20026;-75
2021/10/17 03:40:09;;;;;;;8.15;2.40;;;11.60;90.40;;;;;;5015111;28;20018;-75
2021/10/17 03:42:34;;;;;;;8.88;2.75;;;11.60;90.30;;;;;;5013805;28;20026;-75
2021/10/17 03:45:00;;;;;;;5.82;2.70;;;11.60;90.40;;;;;;5014474;28;20045;-75
2021/10/17 03:47:26;;;;;;;4.75;2.30;;;11.60;90.40;;;;;;5010220;28;20033;-75
2021/10/17 03:49:52;;;;;;;6.80;2.78;;;11.60;90.40;;;;;;4995081;28;20120;-75
2021/10/17 03:52:17;;;;;;;5.38;2.50;;;11.60;90.40;;;;;;4994480;28;20467;-75
2021/10/17 03:54:44;;;;;;;6.88;2.80;;;11.60;90.40;;;;;;4993554;28;20029;-74
2021/10/17 03:57:10;;;;;;;6.22;2.92;;;11.60;90.40;;;;;;4995471;28;20085;-76
2021/10/17 03:59:36;;;;;;;7.55;3.05;;;11.50;90.40;;;;;;4993890;28;20015;-76
2021/10/17 04:02:02;;;;;;;5.28;2.75;;;11.50;90.40;;;;;;4993285;28;20023;-77
2021/10/17 04:04:27;;;;;;;5.18;2.53;;;11.50;90.40;;;;;;4995411;28;20081;-76
2021/10/17 04:06:53;;;;;;;8.90;3.17;;;11.50;90.40;;;;;;4993323;28;20081;-77
2021/10/17 04:09:18;;;;;;;7.05;3.20;;;11.50;90.40;;;;;;4995035;28;20022;-77
2021/10/17 04:11:47;;;;;;;7.00;3.25;;;11.50;90.40;;;;;;4995083;28;20033;-76
2021/10/17 04:14:14;;;;;;;7.88;2.97;;;11.40;90.40;;;;;;4993740;28;20022;-76
2021/10/17 04:16:40;;;;;;;7.20;2.67;;;11.40;90.50;;;;;;4993594;28;20121;-74
2021/10/17 04:19:05;;;;;;;7.50;2.95;;;11.40;90.40;;;;;;4993954;28;20391;-75
2021/10/17 04:21:31;;;;;;;5.65;3.10;;;11.40;90.40;;;;;;4994834;28;20018;-75
2021/10/17 04:23:57;;;;;;;7.15;3.35;;;11.40;90.40;;;;;;4992892;28;20531;-74
2021/10/17 04:26:22;;;;;;;5.53;3.03;;;11.40;90.40;;;;;;4993413;28;20015;-75
2021/10/17 04:28:48;;;;;;;6.72;2.72;;;11.40;90.40;;;;;;4992799;28;20375;-74
2021/10/17 04:31:14;;;;;;;5.07;2.47;;;11.40;90.40;;;;;;4994869;28;20379;-74
2021/10/17 04:33:40;;;;;;;6.68;3.45;;;11.40;90.40;;;;;;4994315;28;20112;-74
2021/10/17 04:36:06;;;;;;;7.25;3.25;;;11.30;90.30;;;;;;4994050;28;20738;-75
2021/10/17 04:38:33;;;;;;;7.30;3.28;;;11.30;90.40;;;;;;4994442;28;20034;-74
2021/10/17 04:40:59;;;;;;;6.55;3.08;;;11.30;90.30;;;;;;4994011;28;20113;-74
2021/10/17 04:43:25;;;;;;;7.05;2.70;;;11.30;90.30;;;;;;4993315;28;20096;-74
2021/10/17 04:45:51;;;;;;;5.85;2.95;;;11.30;90.30;;;;;;4993827;28;20109;-75
2021/10/17 04:48:16;;;;;;;8.48;3.13;;;11.30;90.30;;;;;;4994594;28;20109;-75
2021/10/17 04:50:42;;;;;;;5.85;3.20;;;11.30;90.30;;;;;;4992973;28;20030;-76
2021/10/17 04:53:09;;;;;;;6.30;2.92;;;11.30;90.30;;;;;;4992201;28;20487;-76
2021/10/17 04:55:35;;;;;;;6.13;2.83;;;11.30;90.30;;;;;;4992880;28;20026;-76
2021/10/17 04:58:02;;;;;;;6.78;3.03;;;11.30;90.30;;;;;;4993298;28;20022;-76
2021/10/17 05:00:28;;;;;;;6.93;3.00;;;11.30;90.30;;;;;;4994117;28;20566;-77
2021/10/17 05:02:54;;;;;;;9.95;3.10;;;11.30;90.30;;;;;;5007808;28;20106;-76
2021/10/17 05:05:20;;;;;;;5.00;2.75;;;11.20;90.30;;;;;;4993952;28;20530;-77
2021/10/17 05:07:45;;;;;;;12.10;3.13;;;11.20;90.30;;;;;;4994225;28;20468;-76
2021/10/17 05:10:11;;;;;;;7.20;3.13;;;11.20;90.30;;;;;;4993467;28;20105;-77
2021/10/17 05:12:37;;;;;;;8.52;3.10;;;11.20;90.30;;;;;;4993826;28;20049;-77
2021/10/17 05:15:03;;;;;;;5.88;2.72;;;11.20;90.30;;;;;;4993122;28;20038;-77
2021/10/17 05:17:28;;;;;;;6.63;3.40;;;11.20;90.40;;;;;;4992599;28;20053;-76
2021/10/17 05:19:54;;;;;;;6.18;2.65;;;11.20;90.40;;;;;;4993043;28;20023;-77
2021/10/17 05:22:19;;;;;;;4.93;3.05;;;11.20;90.40;;;;;;4993396;28;20467;-77
2021/10/17 05:24:45;;;;;;;6.97;3.28;;;11.20;90.40;;;;;;4993797;28;20035;-77
2021/10/17 05:27:11;;;;;;;5.68;2.97;;;11.10;90.40;;;;;;4992167;28;20030;-77
2021/10/17 05:29:36;;;;;;;8.65;3.30;;;11.10;90.40;;;;;;4992677;28;20027;-77
2021/10/17 05:32:02;;;;;;;5.82;3.00;;;11.10;90.50;;;;;;4993059;28;20034;-76
2021/10/17 05:34:28;;;;;;;5.50;2.80;;;11.10;90.50;;;;;;4991758;28;20042;-76
2021/10/17 05:36:53;;;;;;;8.15;2.80;;;11.10;90.50;;;;;;4993087;28;20026;-77
2021/10/17 05:39:19;;;;;;;6.18;3.08;;;11.10;90.50;;;;;;4993368;28;20050;-76
2021/10/17 05:41:44;;;;;;;5.93;2.80;;;11.00;90.50;;;;;;4993362;28;20385;-74
2021/10/17 05:44:10;;;;;;;9.18;2.90;;;11.10;90.60;;;;;;4992674;28;20224;-76
2021/10/17 05:46:36;;;;;;;5.80;2.97;;;11.10;90.60;;;;;;4992985;28;20026;-76
2021/10/17 05:49:01;;;;;;;4.57;2.97;;;11.00;90.60;;;;;;4991338;28;20026;-75
2021/10/17 05:51:27;;;;;;;5.80;3.10;;;11.10;90.70;;;;;;4991973;28;20364;-75
2021/10/17 05:53:53;;;;;;;7.10;2.63;;;11.00;90.70;;;;;;4991111;28;20037;-75
2021/10/17 05:56:18;;;;;;;4.57;2.90;;;11.10;90.70;;;;;;4994856;28;20337;-76
2021/10/17 05:58:44;;;;;;;4.30;2.67;;;11.10;90.70;;;;;;5011476;28;20072;-76
2021/10/17 06:01:09;;;;;;;11.25;3.50;;;11.10;90.60;;;;;;5008647;28;20545;-77
2021/10/17 06:03:35;;;;;;;4.78;2.67;;;11.00;90.60;;;;;;5012420;28;20030;-78
2021/10/17 06:06:02;;;;;;;9.88;3.70;;;11.00;90.60;;;;;;5012045;28;20075;-77
2021/10/17 06:08:30;;;;;;;7.03;3.35;;;11.00;90.60;;;;;;5012643;28;20018;-77
2021/10/17 06:10:56;;;;;;;8.25;3.05;;;11.00;90.70;;;;;;5011932;28;20018;-77
2021/10/17 06:13:22;;;;;;;10.45;3.63;;;11.00;90.70;;;;;;5012339;28;20030;-76
2021/10/17 06:15:47;;;;;;;5.78;3.03;;;11.00;90.70;;;;;;5012307;28;20095;-77
2021/10/17 06:18:13;;;;;;;8.15;3.08;;;11.00;90.70;;;;;;5010563;28;20402;-77
2021/10/17 06:20:39;;;;;;;4.93;2.33;;;11.00;90.70;;;;;;5012409;28;20026;-77
2021/10/17 06:23:04;;;;;;;4.95;2.95;;;11.10;90.70;;;;;;5010369;28;20425;-76
2021/10/17 06:25:30;;;;;;;9.45;3.30;;;11.00;90.60;;;;;;5011083;28;20122;-77
2021/10/17 06:27:56;;;;;;;8.38;3.13;;;11.00;90.60;;;;;;5011280;28;20378;-76
2021/10/17 06:30:22;;;;;;;8.75;3.50;;;11.00;90.60;;;;;;5006761;28;20022;-77
2021/10/17 06:32:48;;;;;;;8.73;3.92;;;11.10;90.70;;;;;;4991877;28;20049;-77
2021/10/17 06:35:14;;;;;;;5.80;2.90;;;11.10;90.70;;;;;;4992001;28;20057;-77
2021/10/17 06:37:40;;;;;;;5.38;2.90;;;11.10;90.60;;;;;;4991260;28;20024;-77
2021/10/17 06:40:06;;;;;;;6.50;3.10;;;11.10;90.60;;;;;;4990441;28;20026;-78
2021/10/17 06:42:32;;;;;;;7.05;3.72;;;11.10;90.70;;;;;;4992318;28;20019;-77
2021/10/17 06:44:58;;;;;;;6.55;3.50;;;11.10;90.60;;;;;;4991748;28;20030;-76
2021/10/17 06:47:23;;;;;;;5.65;3.33;;;11.10;90.60;;;;;;4991232;28;20085;-76
2021/10/17 06:49:49;;;;;;;6.30;3.38;;;11.20;90.60;;;;;;4991081;28;20530;-76
2021/10/17 06:52:15;;;;;;;7.13;3.47;;;11.20;90.50;;;;;;4991400;28;20026;-76
2021/10/17 06:54:40;;;;;;;5.43;2.92;;;11.20;90.50;;;;;;4992261;28;20043;-76
2021/10/17 06:57:06;;;;;;;5.85;2.97;;;11.20;90.50;;;;;;4991503;28;20022;-76
2021/10/17 06:59:32;;;;;;;7.20;3.50;;;11.30;90.50;;;;;;4992029;28;20023;-77
2021/10/17 07:01:58;;;;;;;5.97;3.00;;;11.30;90.50;;;;;;4991654;28;20077;-77
2021/10/17 07:04:23;;;;;;;7.20;3.35;;;11.40;90.50;;;;;;4991044;28;20023;-77
2021/10/17 07:06:49;;;;;;;4.88;3.33;;;11.40;90.40;;;;;;4991146;28;20092;-77
2021/10/17 07:09:15;;;;;;;7.10;3.45;;;11.40;90.40;;;;;;4990280;28;20553;-78
2021/10/17 07:11:41;;;;;;;5.35;3.28;;;11.40;90.40;;;;;;4992518;28;20034;-77
2021/10/17 07:14:07;;;;;;;4.85;2.83;;;11.50;90.40;;;;;;4990248;28;20471;-77
2021/10/17 07:16:32;;;;;;;6.88;3.05;;;11.50;90.40;;;;;;4990998;28;20026;-78
2021/10/17 07:18:58;;;;;;;7.28;3.00;;;11.50;90.30;;;;;;4990037;28;20438;-77
2021/10/17 07:21:23;;;;;;;8.15;3.45;;;11.50;90.30;;;;;;4990582;28;20077;-78
2021/10/17 07:23:49;;;;;;;9.82;3.63;;;11.50;90.30;;;;;;4991854;28;20039;-78
2021/10/17 07:26:15;;;;;;;7.13;3.53;;;11.50;90.20;;;;;;4991661;28;20550;-78
2021/10/17 07:28:40;;;;;;;6.70;3.65;;;11.50;90.20;;;;;;4995301;28;20058;-77
2021/10/17 07:31:06;;;;;;;6.55;3.50;;;11.50;90.20;;;;;;5010218;28;20109;-77
2021/10/17 07:33:32;;;;;;;5.78;3.08;;;11.40;90.20;;;;;;4998434;28;20053;-77
2021/10/17 07:35:58;;;;;;;5.80;2.97;;;11.40;90.20;;;;;;5013211;28;20033;-77
2021/10/17 07:38:23;;;;;;;6.65;2.90;;;11.50;90.20;;;;;;4995952;28;20057;-77
2021/10/17 07:40:50;;;;;;;9.27;3.60;;;11.50;90.10;;;;;;4994261;28;20033;-78
2021/10/17 07:43:15;;;;;;;8.25;2.72;;;11.50;90.00;;;;;;4994599;28;20696;-77
2021/10/17 07:45:41;;;;;;;6.38;3.30;;;11.60;90.00;;;;;;5010517;28;20037;-76
2021/10/17 07:48:11;;;;;;;9.75;3.45;;;11.60;89.80;;;;;;5010334;28;20030;-77
2021/10/17 07:50:37;;;;;;;7.43;3.17;;;11.60;89.70;;;;;;5014726;28;20134;-77
2021/10/17 07:53:02;;;;;;;4.22;2.88;;;11.70;89.70;;;;;;5014696;28;20382;-77
2021/10/17 07:55:28;;;;;;;9.55;3.65;;;11.70;89.50;;;;;;5015000;28;20026;-77
2021/10/17 07:57:55;;;;;;;5.90;3.05;;;11.80;89.40;;;;;;5014814;28;20057;-77
2021/10/17 08:00:22;;;;;;;6.22;3.50;;;11.80;89.30;;;;;;5029172;28;20022;-77
2021/10/17 08:02:48;;;;;;;7.07;3.42;;;11.80;89.40;;;;;;5014465;28;20068;-78
2021/10/17 08:05:14;;;;;;;6.80;3.47;;;11.80;89.50;;;;;;5012739;28;20026;-78
2021/10/17 08:07:40;;;;;;;6.50;3.47;;;11.80;89.30;;;;;;5014665;28;20057;-78
2021/10/17 08:10:07;;;;;;;6.30;3.55;;;11.90;89.30;;;;;;5014010;28;20018;-78
2021/10/17 08:12:33;;;;;;;9.32;3.88;;;12.00;89.10;;;;;;5014535;28;20026;-78
2021/10/17 08:14:58;;;;;;;6.80;3.20;;;12.00;88.90;;;;;;5012558;28;20042;-77
2021/10/17 08:17:24;;;;;;;6.80;3.40;;;12.10;88.70;;;;;;5014229;28;20069;-79
2021/10/17 08:19:51;;;;;;;7.15;3.22;;;12.20;88.60;;;;;;5029685;28;20022;-79
2021/10/17 08:22:18;;;;;;;7.03;3.67;;;12.20;88.50;;;;;;5012372;28;20384;-78
2021/10/17 08:24:44;;;;;;;6.63;3.63;;;12.30;88.40;;;;;;5014461;28;20025;-77
2021/10/17 08:27:09;;;;;;;9.23;3.70;;;12.30;88.40;;;;;;5013636;28;20383;-78
2021/10/17 08:29:35;;;;;;;6.72;3.33;;;12.40;88.20;;;;;;5012419;28;20030;-78
2021/10/17 08:32:01;;;;;;;7.80;3.30;;;12.40;88.20;;;;;;5028665;28;20030;-77
2021/10/17 08:34:26;;;;;;;6.10;2.92;;;12.40;87.80;;;;;;5012307;28;20046;-78
2021/10/17 08:36:52;;;;;;;8.00;3.65;;;12.40;87.80;;;;;;5013695;28;20026;-78
2021/10/17 08:39:17;;;;;;;8.68;3.13;;;12.40;87.70;;;;;;5012008;28;20018;-78
2021/10/17 08:41:45;;;;;;;8.35;3.00;;;12.50;87.80;;;;;;5012706;28;20025;-78
2021/10/17 08:44:14;;;;;;;5.38;2.83;;;12.50;87.70;;;;;;5013168;28;20026;-77
2021/10/17 08:46:41;;;;;;;5.28;2.45;;;12.60;87.70;;;;;;5012538;28;20029;-78
2021/10/17 08:49:08;;;;;;;4.40;2.60;;;12.70;87.50;;;;;;5013184;28;20088;-78
2021/10/17 08:51:34;;;;;;;9.93;3.85;;;12.60;87.30;;;;;;5013748;28;20070;-79
2021/10/17 08:53:59;;;;;;;8.13;3.97;;;12.70;87.30;;;;;;5011508;28;20034;-78
2021/10/17 08:56:25;;;;;;;8.20;3.85;;;12.70;87.20;;;;;;5011822;28;20026;-78
2021/10/17 08:58:51;;;;;;;6.28;3.33;;;12.70;87.10;;;;;;5012048;28;20096;-77
2021/10/17 09:01:17;;;;;;;7.18;3.75;;;12.70;86.80;;;;;;5013067;28;20773;-77
2021/10/17 09:03:55;;;;;;;7.13;3.42;;;12.70;86.80;;;;;;5013482;28;20057;-77
2021/10/17 09:06:25;;;;;;;8.82;3.10;;;12.80;86.80;;;;;;5010484;28;20030;-77
2021/10/17 09:09:07;;;;;;;8.90;4.15;;;12.90;86.80;;;;;;5004145;28;20034;-77
2021/10/17 09:12:00;;;;;;;8.35;4.10;;;12.90;86.50;;;;;;5004573;28;20014;-78
2021/10/17 09:14:30;;;;;;;6.03;3.55;;;12.90;86.30;;;;;;5017901;28;20442;-78
2021/10/17 09:17:00;;;;;;;7.43;3.40;;;12.90;86.20;;;;;;5004079;28;20030;-78
2021/10/17 09:19:30;;;;;;;7.85;3.08;;;13.00;86.20;;;;;;5006074;28;20300;-76
2021/10/17 09:22:03;;;;;;;7.03;3.40;;;13.10;86.10;;;;;;5004992;28;20121;-79
2021/10/17 09:24:32;;;;;;;4.75;1.83;;;13.10;85.90;;;;;;5005935;28;20375;-78
2021/10/17 09:27:09;;;;;;;10.38;3.88;;;13.10;85.80;;;;;;5005188;28;20026;-78
2021/10/17 09:29:36;;;;;;;5.97;3.20;;;13.20;85.40;;;;;;5004557;28;20042;-78
2021/10/17 09:32:08;;;;;;;7.93;3.40;;;13.20;85.40;;;;;;5006203;28;20075;-78
2021/10/17 09:34:34;;;;;;;6.18;3.22;;;13.20;85.30;;;;;;5004216;28;20129;-78
2021/10/17 09:37:19;;;;;;;8.57;4.18;;;13.20;85.20;;;;;;5019528;28;20475;-78
2021/10/17 09:39:47;;;;;;;7.43;3.67;;;13.30;85.00;;;;;;5001748;28;20398;-78
2021/10/17 09:42:21;;;;;;;10.40;3.90;;;13.30;84.50;;;;;;5008592;28;20013;-78
2021/10/17 09:44:47;;;;;;;8.93;3.40;;;13.20;84.50;;;;;;5001297;28;20037;-78
2021/10/17 09:47:13;;;;;;;4.95;2.75;;;13.20;84.30;;;;;;5005029;28;20098;-77
2021/10/17 09:49:39;;;;;;;4.82;2.75;;;13.20;84.40;;;;;;5005702;28;20022;-77
2021/10/17 09:52:24;;;;;;;8.07;3.35;;;13.20;84.50;;;;;;5005191;28;20844;-77
2021/10/17 09:55:04;;;;;;;10.40;4.03;;;13.20;83.80;;;;;;5003471;28;20116;-77
2021/10/17 09:57:30;;;;;;;9.23;3.95;;;13.30;83.50;;;;;;5005190;28;20038;-79
2021/10/17 09:59:55;;;;;;;7.20;3.38;;;13.30;82.90;;;;;;5004380;28;20099;-77
2021/10/17 10:02:23;;;;;;;8.75;4.60;;;13.40;82.30;;;;;;5004967;28;20198;-76
2021/10/17 10:04:51;;;;;;;5.35;2.75;;;13.40;82.00;;;;;;5004206;28;20477;-77
2021/10/17 10:07:24;;;;;;;8.02;3.42;;;13.50;82.00;;;;;;5004572;28;20476;-76
2021/10/17 10:09:52;;;;;;;5.63;2.80;;;13.60;82.00;;;;;;5004576;28;20076;-77
2021/10/17 10:12:19;;;;;;;5.68;2.67;;;13.70;82.00;;;;;;5007075;28;20022;-77
2021/10/17 10:14:47;;;;;;;7.47;3.30;;;13.80;81.70;;;;;;5003920;28;20093;-77
2021/10/17 10:17:14;;;;;;;7.88;4.28;;;13.80;81.20;;;;;;5003383;28;20365;-77
2021/10/17 10:19:41;;;;;;;8.73;3.55;;;13.90;81.00;;;;;;5002913;28;20473;-76
2021/10/17 10:22:07;;;;;;;7.60;3.00;;;13.90;81.00;;;;;;5004816;28;20026;-78
2021/10/17 10:24:33;;;;;;;9.43;3.90;;;14.00;80.50;;;;;;5004452;28;21720;-78
2021/10/17 10:27:00;;;;;;;4.70;2.28;;;14.00;80.30;;;;;;4996353;28;20045;-78
2021/10/17 10:29:28;;;;;;;8.25;3.35;;;14.10;80.40;;;;;;4999798;28;20034;-76
2021/10/17 10:32:02;;;;;;;8.52;3.42;;;14.10;80.20;;;;;;5001870;28;20057;-77
2021/10/17 10:34:37;;;;;;;6.60;3.55;;;14.20;80.40;;;;;;5001625;28;20054;-77
2021/10/17 10:37:20;;;;;;;6.32;2.85;;;14.20;80.40;;;;;;5001997;28;20073;-77
2021/10/17 10:40:04;;;;;;;5.97;3.38;;;14.20;80.30;;;;;;5004244;28;20098;-77
2021/10/17 10:42:45;;;;;;;10.30;3.22;;;14.10;80.00;;;;;;5005067;28;20040;-79
2021/10/17 10:45:37;;;;;;;4.47;2.47;;;14.10;80.30;;;;;;5003146;28;20034;-77
2021/10/17 10:48:11;;;;;;;6.80;2.88;;;14.10;80.10;;;;;;5004226;28;20030;-77
2021/10/17 10:50:45;;;;;;;6.30;2.95;;;14.10;80.30;;;;;;5005071;28;20037;-77
2021/10/17 10:53:32;;;;;;;5.53;2.70;;;14.10;80.40;;;;;;5002348;28;20029;-77
2021/10/17 10:55:58;;;;;;;5.50;2.45;;;14.10;80.40;;;;;;5003624;28;20038;-78
2021/10/17 10:58:23;;;;;;;5.50;2.17;;;14.10;80.30;;;;;;5002223;28;20030;-78
2021/10/17 11:00:50;;;;;;;7.28;3.30;;;14.10;80.40;;;;;;5003390;28;20026;-79
2021/10/17 11:03:17;;;;;;;6.40;3.72;;;14.20;80.10;;;;;;5006069;28;20037;-79
2021/10/17 11:06:04;;;;;;;8.55;4.72;;;14.30;79.50;;;;;;5007257;28;20490;-78
2021/10/17 11:08:31;;;;;;;6.50;3.75;;;14.40;79.00;;;;;;5007776;28;20080;-79
2021/10/17 11:10:56;;;;;;;6.25;3.55;;;14.50;78.50;;;;;;5008156;28;20125;-79
2021/10/17 11:13:42;;;;;;;9.00;4.03;;;14.60;78.30;;;;;;5007566;28;20457;-77
2021/10/17 11:16:18;;;;;;;9.18;4.15;;;14.70;77.90;;;;;;5006995;28;20022;-76
2021/10/17 11:18:44;;;;;;;5.68;3.25;;;14.80;77.60;;;;;;5005139;28;20053;-78
2021/10/17 11:21:10;;;;;;;5.88;3.03;;;14.80;77.70;;;;;;5006405;28;20061;-77
2021/10/17 11:23:39;;;;;;;6.57;3.65;;;14.90;77.80;;;;;;5008692;28;20033;-76
2021/10/17 11:26:10;;;;;;;8.82;4.00;;;14.90;78.00;;;;;;5007154;28;20167;-78
2021/10/17 11:28:39;;;;;;;5.78;3.78;;;14.90;78.00;;;;;;5006918;28;20032;-77
2021/10/17 11:31:09;;;;;;;7.65;3.70;;;14.80;77.90;;;;;;5006997;28;20030;-79
2021/10/17 11:33:36;;;;;;;9.18;2.90;;;14.80;78.10;;;;;;5008083;28;20092;-79
2021/10/17 11:36:02;;;;;;;5.35;2.72;;;14.80;78.30;;;;;;5006805;28;20033;-79
2021/10/17 11:38:28;;;;;;;7.22;3.15;;;14.90;78.50;;;;;;5005729;28;20034;-80
2021/10/17 11:41:12;;;;;;;6.70;3.75;;;14.90;78.40;;;;;;5007872;28;20033;-79
2021/10/17 11:43:43;;;;;;;4.93;2.50;;;15.10;78.20;;;;;;5008193;28;20095;-76
2021/10/17 11:46:14;;;;;;;8.65;3.20;;;15.20;77.90;;;;;;5006416;28;20411;-77
2021/10/17 11:48:41;;;;;;;5.55;2.72;;;15.40;77.50;;;;;;5007429;28;20045;-79
2021/10/17 11:51:10;;;;;;;7.60;2.80;;;15.50;77.30;;;;;;5007982;28;20429;-79
2021/10/17 11:53:36;;;;;;;7.85;3.10;;;15.60;77.40;;;;;;5007988;28;20089;-78
2021/10/17 11:56:02;;;;;;;7.28;2.90;;;15.70;77.50;;;;;;5010586;28;20076;-79
2021/10/17 11:58:30;;;;;;;4.65;2.45;;;15.80;77.00;;;;;;5008425;28;20034;-80
2021/10/17 12:01:18;;;;;;;7.97;3.20;;;15.90;76.80;;;;;;5019120;28;20056;-80
2021/10/17 12:04:09;;;;;;;7.93;2.80;;;16.00;75.90;;;;;;5014051;28;20022;-79
2021/10/17 12:06:35;;;;;;;4.60;2.05;;;16.00;74.70;;;;;;5013550;28;20482;-78
2021/10/17 12:09:01;;;;;;;2.83;1.80;;;15.90;74.00;;;;;;5014902;28;20036;-78
2021/10/17 12:11:27;;;;;;;6.35;2.55;;;15.90;74.30;;;;;;5012781;28;20022;-78
2021/10/17 12:13:55;;;;;;;4.32;2.17;;;15.80;73.80;;;;;;5014107;28;20022;-78
2021/10/17 12:16:31;;;;;;;3.65;2.40;;;15.80;74.00;;;;;;5013829;28;20029;-77
2021/10/17 12:19:03;;;;;;;4.82;2.67;;;15.70;74.10;;;;;;5014123;28;20026;-78
2021/10/17 12:21:34;;;;;;;4.15;2.33;;;15.70;73.90;;;;;;5013820;28;20025;-77
2021/10/17 12:24:00;;;;;;;;;;;15.70;73.80;;;;;;5014807;28;20109;-80
2021/10/17 12:26:29;;;;;;;3.75;2.50;;;15.70;73.80;;;;;;5028951;28;20020;-79
2021/10/17 12:29:12;;;;;;;6.05;2.10;;;15.70;73.10;;;;;;5014464;28;20069;-79
2021/10/17 12:31:42;;;;;;;6.03;2.75;;;15.70;72.90;;;;;;5029673;28;20415;-79
2021/10/17 12:34:09;;;;;;;4.28;2.17;;;15.70;72.40;;;;;;5014037;28;20525;-79
2021/10/17 12:36:37;;;;;;;4.45;2.22;;;15.70;72.40;;;;;;5012757;28;20068;-78
2021/10/17 12:39:09;;;;;;;5.35;2.83;;;15.60;72.40;;;;;;5017323;28;20046;-80
2021/10/17 12:41:35;;;;;;;8.07;2.95;;;15.60;72.30;;;;;;5028661;28;20469;-79
2021/10/17 12:44:09;;;;;;;4.57;2.20;;;15.60;72.10;;;;;;5014177;28;20026;-80
2021/10/17 12:46:35;;;;;;;7.38;2.80;;;15.60;72.50;;;;;;5013419;28;20109;-77
2021/10/17 12:49:12;;;;;;;4.22;2.10;;;15.60;71.50;;;;;;5013825;28;20359;-78